Time;durP1;ratioP1;P1;durP2;ratioP2;P2;SDS_P1;SDS_P2;PMS_P1;PMS_P2;Temp;Humidity;BMP_temperature;BMP_pressure;BME280_temperature;BME280_humidity;BME280_pressure;Samples;Min_cycle;Max_cycle;Signal;HPM_P1;HPM_P2
2023/01/29 00:02:11;;;;;;;5.45;4.50;;;;;;;1.82;80.14;96458.13;5075660;28;20041;-63
2023/01/29 00:04:38;;;;;;;5.32;4.35;;;;;;;1.81;80.28;96453.81;5075516;28;20079;-61
2023/01/29 00:07:08;;;;;;;9.77;5.03;;;;;;;1.79;80.29;96459.84;5075448;28;20052;-64
2023/01/29 00:09:35;;;;;;;4.47;4.07;;;;;;;1.76;80.57;96456.44;5075338;28;20139;-62
2023/01/29 00:12:02;;;;;;;6.40;4.30;;;;;;;1.77;80.49;96454.69;5075307;28;20080;-63
2023/01/29 00:14:29;;;;;;;6.43;5.10;;;;;;;1.77;80.28;96457.25;5075230;28;20140;-63
2023/01/29 00:16:57;;;;;;;6.50;4.72;;;;;;;1.74;80.77;96455.56;5075345;28;20049;-65
2023/01/29 00:19:27;;;;;;;6.40;4.85;;;;;;;1.72;80.29;96462.44;5075333;28;20044;-63
2023/01/29 00:21:55;;;;;;;9.73;5.00;;;;;;;1.69;79.89;96459.91;5075219;28;20044;-63
2023/01/29 00:24:24;;;;;;;12.80;4.75;;;;;;;1.67;80.07;96460.75;5075337;28;20068;-62
2023/01/29 00:26:51;;;;;;;5.65;4.30;;;;;;;1.65;80.03;96463.31;5075185;28;20041;-65
2023/01/29 00:29:20;;;;;;;5.70;4.32;;;;;;;1.63;80.62;96475.38;5074214;28;20045;-63
2023/01/29 00:31:49;;;;;;;5.90;4.22;;;;;;;1.63;80.59;96475.38;5074998;28;20049;-65
2023/01/29 00:34:16;;;;;;;6.80;4.43;;;;;;;1.62;80.70;96479.69;5074900;28;20045;-62
2023/01/29 00:36:45;;;;;;;5.20;4.15;;;;;;;1.59;80.38;96481.41;5074890;28;20075;-63
2023/01/29 00:39:12;;;;;;;5.30;4.38;;;;;;;1.57;80.53;96480.56;5074925;28;20044;-65
2023/01/29 00:47:29;;;;;;;6.95;4.13;;;;;;;1.56;80.67;96477.13;5074743;28;20407;-65
2023/01/29 00:49:57;;;;;;;5.10;4.40;;;;;;;1.55;80.98;96480.56;5074640;28;20049;-63
2023/01/29 00:52:24;;;;;;;8.00;4.22;;;;;;;1.53;80.69;96481.44;5074666;28;20044;-63
2023/01/29 00:54:51;;;;;;;6.82;3.85;;;;;;;1.48;80.50;96481.44;5074621;28;20475;-65
2023/01/29 00:57:20;;;;;;;6.95;4.40;;;;;;;1.46;80.86;96481.47;5074507;28;20053;-65
2023/01/29 00:59:47;;;;;;;6.78;4.82;;;;;;;1.41;81.22;96480.59;5074457;28;20080;-64
2023/01/29 01:05:01;;;;;;;5.53;3.25;;;;;;;1.40;81.65;96491.78;5074459;28;20059;-63
2023/01/29 01:07:28;;;;;;;5.43;3.88;;;;;;;1.35;81.58;96478.91;5074302;28;20098;-64
2023/01/29 01:12:57;;;;;;;4.55;3.40;;;;;;;1.35;81.93;96491.78;5032113;28;20049;-64
2023/01/29 01:15:25;;;;;;;4.63;3.30;;;;;;;1.32;81.97;96490.94;5064977;28;20040;-63
2023/01/29 01:17:54;;;;;;;4.60;3.60;;;;;;;1.31;82.14;96496.94;5074000;28;20453;-64
2023/01/29 01:20:22;;;;;;;5.60;3.78;;;;;;;1.32;82.41;96496.09;5074016;28;20461;-64
2023/01/29 01:22:49;;;;;;;4.57;3.45;;;;;;;1.33;82.27;96492.66;5073932;28;20076;-63
2023/01/29 01:25:17;;;;;;;5.53;3.90;;;;;;;1.35;82.36;96486.63;5073925;28;20048;-66
2023/01/29 01:27:45;;;;;;;5.25;4.03;;;;;;;1.37;82.43;96492.66;5073997;28;20126;-66
2023/01/29 01:30:16;;;;;;;5.50;4.28;;;;;;;1.36;82.18;96487.50;5073676;28;20048;-66
2023/01/29 01:32:43;;;;;;;7.05;4.22;;;;;;;1.33;82.51;96487.50;5073880;28;20064;-66
2023/01/29 01:35:12;;;;;;;8.35;4.03;;;;;;;1.32;82.30;96484.06;5073805;28;20437;-64
2023/01/29 01:37:39;;;;;;;5.53;3.80;;;;;;;1.32;82.58;96489.22;5073886;28;20051;-64
2023/01/29 01:40:11;;;;;;;5.53;4.03;;;;;;;1.30;82.61;96498.69;5073102;28;20060;-63
2023/01/29 01:42:39;;;;;;;5.38;3.85;;;;;;;1.31;82.42;96491.78;5073614;28;20044;-64
2023/01/29 01:45:09;;;;;;;9.10;4.05;;;;;;;1.22;82.60;96497.81;5073581;28;20102;-64
2023/01/29 01:47:43;;;;;;;5.57;4.28;;;;;;;1.22;82.81;96497.81;5073622;28;20242;-63
2023/01/29 01:50:14;;;;;;;6.43;4.25;;;;;;;1.24;82.68;96504.69;5073557;28;20470;-65
2023/01/29 01:52:47;;;;;;;4.50;4.05;;;;;;;1.26;83.30;96499.53;5073526;28;20127;-65
2023/01/29 01:55:17;;;;;;;5.78;4.30;;;;;;;1.30;83.18;96509.00;5073461;28;20044;-66
2023/01/29 01:57:47;;;;;;;4.68;4.15;;;;;;;1.33;83.01;96513.28;5073447;28;20513;-63
2023/01/29 02:00:18;;;;;;;12.65;4.20;;;;;;;1.29;83.41;96517.56;5073435;28;20127;-63
2023/01/29 02:11:09;;;;;;;6.43;4.70;;;;;;;1.21;83.45;96517.56;5073162;28;20059;-63
2023/01/29 02:13:36;;;;;;;5.75;4.30;;;;;;;1.22;83.28;96516.72;5073326;28;20041;-64
2023/01/29 02:16:03;;;;;;;9.88;4.68;;;;;;;1.26;83.46;96517.56;5073232;28;20131;-65
2023/01/29 02:18:36;;;;;;;5.88;4.32;;;;;;;1.28;83.57;96518.44;5073084;28;20098;-65
2023/01/29 02:21:28;;;;;;;7.38;4.53;;;;;;;1.29;83.58;96517.56;5073271;28;20049;-64
2023/01/29 02:24:20;;;;;;;6.07;4.53;;;;;;;1.25;83.40;96518.44;5073090;28;20494;-63
2023/01/29 02:26:59;;;;;;;7.57;4.97;;;;;;;1.22;83.55;96516.72;5073105;28;20542;-66
2023/01/29 02:29:34;;;;;;;9.38;5.03;;;;;;;1.20;83.70;96520.19;5072845;28;20098;-66
2023/01/29 02:32:16;;;;;;;8.60;5.63;;;;;;;1.26;83.96;96515.00;5073003;28;20055;-66
2023/01/29 02:37:41;;;;;;;7.25;5.22;;;;;;;1.21;84.20;96529.63;5073153;28;20055;-64
2023/01/29 02:40:18;;;;;;;9.75;4.95;;;;;;;1.23;84.25;96525.31;5073039;28;20056;-67
2023/01/29 02:42:53;;;;;;;7.63;5.30;;;;;;;1.18;84.06;96527.91;5072921;28;20049;-66
2023/01/29 02:45:27;;;;;;;6.55;5.35;;;;;;;1.19;83.89;96523.59;5072834;28;20506;-65
2023/01/29 02:47:58;;;;;;;12.48;6.00;;;;;;;1.18;84.10;96527.91;5072857;28;20040;-65
2023/01/29 02:50:32;;;;;;;8.60;6.10;;;;;;;1.20;84.08;96526.16;5072719;28;20513;-63
2023/01/29 02:53:05;;;;;;;9.05;6.50;;;;;;;1.25;84.18;96528.75;5075441;28;20066;-64
2023/01/29 02:55:38;;;;;;;12.50;7.93;;;;;;;1.24;84.21;96524.47;5076805;28;20055;-63
2023/01/29 02:58:12;;;;;;;10.75;6.47;;;;;;;1.23;84.17;96533.03;5076800;28;20084;-64
2023/01/29 03:00:43;;;;;;;9.95;6.38;;;;;;;1.24;84.04;96527.03;5076793;28;20045;-66
2023/01/29 03:03:17;;;;;;;9.32;6.50;;;;;;;1.23;84.21;96523.59;5076772;28;20041;-66
2023/01/29 03:05:53;;;;;;;10.20;6.38;;;;;;;1.18;84.01;96527.91;5076644;28;20049;-66
2023/01/29 03:08:35;;;;;;;8.73;6.70;;;;;;;1.14;84.09;96531.31;5076669;28;20048;-64
2023/01/29 03:11:05;;;;;;;10.43;6.45;;;;;;;1.12;84.15;96527.91;5076452;28;20056;-67
2023/01/29 03:13:39;;;;;;;14.48;7.57;;;;;;;1.14;84.06;96533.91;5076566;28;20084;-62
2023/01/29 03:16:17;;;;;;;8.15;7.07;;;;;;;1.13;84.32;96533.06;5076361;28;20044;-63
2023/01/29 03:18:49;;;;;;;12.43;8.07;;;;;;;1.11;84.32;96534.78;5076498;28;20052;-67
2023/01/29 03:32:34;;;;;;;13.40;8.50;;;;;;;1.17;84.40;96536.47;5076136;28;20054;-66
2023/01/29 03:35:06;;;;;;;11.10;8.32;;;;;;;1.16;84.65;96539.06;5076100;28;20048;-66
2023/01/29 03:37:43;;;;;;;10.95;7.57;;;;;;;1.12;85.02;96545.94;5076015;28;20049;-65
2023/01/29 03:40:12;;;;;;;12.07;7.90;;;;;;;1.09;84.94;96541.63;5076055;28;20057;-65
2023/01/29 03:42:56;;;;;;;10.43;7.45;;;;;;;1.10;85.30;96550.22;5075972;28;20052;-63
2023/01/29 03:45:32;;;;;;;14.63;7.50;;;;;;;1.07;85.01;96552.81;5075868;28;20068;-64
2023/01/29 03:48:07;;;;;;;11.07;7.25;;;;;;;1.00;85.71;96555.38;5075843;28;20060;-65
2023/01/29 03:50:41;;;;;;;10.30;7.60;;;;;;;1.05;85.58;96546.81;5075706;28;20483;-67
2023/01/29 03:53:21;;;;;;;14.15;8.70;;;;;;;1.06;85.64;96551.97;5075705;28;20132;-65
2023/01/29 03:55:57;;;;;;;10.65;8.20;;;;;;;1.08;85.67;96549.41;5075726;28;20048;-63
2023/01/29 03:58:30;;;;;;;18.23;8.18;;;;;;;1.07;85.47;96556.25;5075650;28;20106;-64
2023/01/29 04:01:01;;;;;;;13.38;9.13;;;;;;;1.09;85.57;96553.69;5075631;28;20049;-64
2023/01/29 04:03:35;;;;;;;14.52;9.15;;;;;;;1.09;85.50;96556.25;5074892;28;20060;-64
2023/01/29 04:06:09;;;;;;;14.75;9.88;;;;;;;1.03;85.41;96559.69;5075498;28;20052;-67
2023/01/29 04:08:45;;;;;;;15.80;9.85;;;;;;;1.02;85.97;96563.09;5075463;28;20044;-62
2023/01/29 04:11:16;;;;;;;14.63;9.75;;;;;;;1.05;85.70;96567.44;5075343;28;20053;-62
2023/01/29 04:13:45;;;;;;;21.50;10.73;;;;;;;1.05;85.77;96562.28;5075474;28;20494;-65
2023/01/29 04:16:17;;;;;;;21.00;10.43;;;;;;;1.05;85.64;96563.13;5075353;28;20052;-66
2023/01/29 04:18:48;;;;;;;27.35;12.32;;;;;;;1.03;85.94;96564.84;5075419;28;20132;-66
2023/01/29 04:21:16;;;;;;;40.08;16.00;;;;;;;1.04;86.24;96573.41;5075315;28;20123;-64
2023/01/29 04:23:43;;;;;;;46.38;16.42;;;;;;;1.00;86.36;96572.56;5075158;28;20045;-64
2023/01/29 04:26:25;;;;;;;29.88;13.35;;;;;;;1.03;86.25;96571.72;5075159;28;20044;-64
2023/01/29 04:29:09;;;;;;;23.13;11.77;;;;;;;1.06;86.10;96575.16;5074863;28;20044;-64
2023/01/29 04:31:52;;;;;;;21.27;11.55;;;;;;;1.03;86.00;96575.16;5074963;28;20049;-66
2023/01/29 04:34:25;;;;;;;27.92;13.43;;;;;;;1.03;86.14;96579.44;5075041;28;20053;-63
2023/01/29 04:37:06;;;;;;;45.83;15.77;;;;;;;1.04;86.12;96576.88;5074916;28;20048;-64
2023/01/29 04:39:39;;;;;;;;;;;;;;;1.08;86.09;96581.16;5075389;28;20052;-66
2023/01/29 04:42:13;;;;;;;33.17;16.33;;;;;;;1.08;86.48;96583.72;5074836;28;19967;-63
2023/01/29 04:44:45;;;;;;;33.58;16.13;;;;;;;1.07;86.17;96587.19;5074779;28;20045;-63
2023/01/29 04:47:20;;;;;;;34.35;16.33;;;;;;;1.13;85.93;96591.47;5074732;28;20175;-66
2023/01/29 04:49:58;;;;;;;32.47;15.73;;;;;;;1.14;86.00;96590.59;5074894;28;20099;-65
2023/01/29 04:52:35;;;;;;;24.50;14.13;;;;;;;1.12;86.05;96592.34;5074614;28;20131;-64
2023/01/29 04:55:08;;;;;;;23.90;14.82;;;;;;;1.12;85.97;96592.34;5074612;28;20052;-62
2023/01/29 04:57:45;;;;;;;26.80;16.70;;;;;;;1.09;85.76;96598.31;5074640;28;20075;-64
2023/01/29 05:00:18;;;;;;;31.77;16.63;;;;;;;1.04;86.15;96592.31;5074411;28;20513;-64
2023/01/29 05:02:46;;;;;;;26.48;16.42;;;;;;;1.02;86.27;96591.44;5074431;28;20044;-66
2023/01/29 05:05:18;;;;;;;34.47;18.30;;;;;;;0.99;86.49;96605.19;5074365;28;20048;-64
2023/01/29 05:07:47;;;;;;;28.48;17.50;;;;;;;0.86;86.96;96600.88;5074302;28;20048;-63
2023/01/29 05:10:17;;;;;;;28.23;15.95;;;;;;;0.87;86.88;96606.03;5074260;28;20068;-64
2023/01/29 05:12:48;;;;;;;28.02;15.23;;;;;;;0.88;87.23;96614.66;5074092;28;20482;-64
2023/01/29 05:15:21;;;;;;;21.15;14.05;;;;;;;0.91;87.32;96613.78;5074257;28;20048;-63
2023/01/29 05:17:48;;;;;;;27.83;13.50;;;;;;;0.93;87.07;96612.91;5074153;28;20048;-66
2023/01/29 05:20:17;;;;;;;18.38;10.95;;;;;;;0.93;87.50;96617.22;5074092;28;20478;-66
2023/01/29 05:22:46;;;;;;;16.33;10.48;;;;;;;0.86;87.29;96614.63;5074066;28;20056;-64
2023/01/29 05:25:21;;;;;;;17.63;10.73;;;;;;;0.93;87.43;96624.97;5074055;28;20048;-64
2023/01/29 05:28:05;;;;;;;16.00;10.55;;;;;;;0.84;87.68;96629.22;5073911;28;20048;-64
2023/01/29 05:30:34;;;;;;;15.80;10.18;;;;;;;0.81;87.66;96631.78;5073812;28;20498;-65
2023/01/29 05:33:01;;;;;;;15.98;11.02;;;;;;;0.83;87.74;96632.66;5073763;28;20512;-64
2023/01/29 05:35:31;;;;;;;17.50;11.25;;;;;;;0.74;87.79;96628.34;5073874;28;20098;-65
2023/01/29 05:37:58;;;;;;;13.35;9.65;;;;;;;0.67;88.20;96626.63;5073750;28;20482;-66
2023/01/29 05:40:25;;;;;;;14.55;10.00;;;;;;;0.65;88.67;96633.47;5073912;28;20076;-64
2023/01/29 05:42:53;;;;;;;15.18;10.30;;;;;;;0.66;88.80;96632.59;5073572;28;20055;-64
2023/01/29 05:45:21;;;;;;;14.82;10.85;;;;;;;0.69;89.09;96639.50;5073696;28;20147;-64
2023/01/29 05:47:48;;;;;;;15.60;10.98;;;;;;;0.71;88.75;96641.22;5073514;28;20044;-65
2023/01/29 05:50:16;;;;;;;22.88;14.32;;;;;;;0.73;89.04;96646.38;5073448;28;20053;-66
2023/01/29 05:52:44;;;;;;;19.58;13.07;;;;;;;0.76;88.99;96643.81;5073405;28;20052;-66
2023/01/29 05:55:12;;;;;;;20.52;12.68;;;;;;;0.74;89.09;96648.97;5073428;28;20139;-63
2023/01/29 05:57:40;;;;;;;19.52;11.80;;;;;;;0.74;89.13;96655.81;5073421;28;20055;-65
2023/01/29 06:00:09;;;;;;;18.88;12.48;;;;;;;0.65;88.97;96655.78;5073411;28;20049;-63
2023/01/29 06:02:36;;;;;;;19.75;11.63;;;;;;;0.65;89.22;96658.34;5073345;28;20092;-63
2023/01/29 06:05:03;;;;;;;18.23;11.85;;;;;;;0.65;89.16;96661.78;5073297;28;20106;-64
2023/01/29 06:07:30;;;;;;;15.80;11.70;;;;;;;0.62;89.43;96669.50;5073283;28;20048;-66
2023/01/29 06:09:59;;;;;;;15.63;11.95;;;;;;;0.61;89.26;96673.78;5073314;28;20410;-66
2023/01/29 06:12:27;;;;;;;22.08;13.68;;;;;;;0.56;89.30;96670.34;5073195;28;20048;-65
2023/01/29 06:14:54;;;;;;;19.05;13.32;;;;;;;0.55;89.21;96672.91;5073205;28;20063;-66
2023/01/29 06:17:21;;;;;;;21.05;13.00;;;;;;;0.59;89.35;96680.66;5073114;28;20445;-63
2023/01/29 06:19:49;;;;;;;18.90;13.00;;;;;;;0.59;89.75;96684.94;5073219;28;20048;-65
2023/01/29 06:22:16;;;;;;;18.02;12.73;;;;;;;0.62;89.64;96679.81;5073085;28;20049;-64
2023/01/29 06:24:44;;;;;;;19.00;13.15;;;;;;;0.61;89.47;96691.81;5073103;28;20486;-64
2023/01/29 06:27:13;;;;;;;19.75;13.23;;;;;;;0.60;89.94;96690.09;5072640;28;20055;-62
2023/01/29 06:29:40;;;;;;;19.60;13.13;;;;;;;0.61;89.57;96690.97;5072742;28;20109;-66
2023/01/29 06:32:07;;;;;;;15.48;11.77;;;;;;;0.58;89.68;96689.25;5072939;28;20105;-66
2023/01/29 06:34:34;;;;;;;17.42;11.93;;;;;;;0.54;89.83;96700.38;5072928;28;20040;-65
2023/01/29 06:37:02;;;;;;;16.40;11.65;;;;;;;0.50;89.47;96699.50;5073052;28;20083;-63
2023/01/29 06:39:29;;;;;;;19.90;13.45;;;;;;;0.50;90.02;96704.66;5073036;28;20048;-62
2023/01/29 06:41:56;;;;;;;17.20;12.07;;;;;;;0.55;89.81;96701.25;5073029;28;20044;-65
2023/01/29 06:44:24;;;;;;;15.93;12.63;;;;;;;0.63;89.65;96699.53;5072989;28;20071;-64
2023/01/29 06:46:51;;;;;;;18.48;12.55;;;;;;;0.66;89.33;96706.44;5072816;28;20560;-66
2023/01/29 06:49:19;;;;;;;19.63;13.55;;;;;;;0.60;89.54;96710.69;5072920;28;20053;-65
2023/01/29 06:51:47;;;;;;;17.83;12.85;;;;;;;0.64;89.28;96703.88;5072852;28;20052;-66
2023/01/29 06:54:14;;;;;;;15.93;11.85;;;;;;;0.70;89.01;96718.47;5072772;28;20067;-64
2023/01/29 06:56:41;;;;;;;18.98;13.15;;;;;;;0.68;89.02;96721.03;5072793;28;20058;-66
2023/01/29 06:59:08;;;;;;;17.00;12.48;;;;;;;0.76;88.65;96715.94;5072758;28;20045;-63
2023/01/29 07:01:41;;;;;;;19.85;12.75;;;;;;;0.79;88.65;96718.50;5072713;28;20052;-65
2023/01/29 07:04:08;;;;;;;18.40;13.00;;;;;;;0.82;88.56;96713.38;5072730;28;20521;-65
2023/01/29 07:06:35;;;;;;;17.17;13.18;;;;;;;0.84;88.64;96713.38;5072655;28;20536;-65
2023/01/29 07:09:03;;;;;;;19.90;14.02;;;;;;;0.88;88.18;96715.94;5072755;28;20052;-63
2023/01/29 07:11:30;;;;;;;20.98;15.15;;;;;;;0.82;87.83;96721.09;5072641;28;20433;-64
2023/01/29 07:13:58;;;;;;;23.17;14.82;;;;;;;0.79;88.75;96722.78;5072679;28;20055;-64
2023/01/29 07:16:25;;;;;;;23.48;15.70;;;;;;;0.85;88.50;96725.41;5072623;28;20456;-64
2023/01/29 07:18:54;;;;;;;19.02;13.75;;;;;;;0.83;88.36;96727.09;5072554;28;20153;-64
2023/01/29 07:21:22;;;;;;;12.55;9.38;;;;;;;0.78;87.19;96719.34;5072615;28;20091;-64
2023/01/29 07:23:51;;;;;;;16.10;9.57;;;;;;;0.61;87.09;96733.00;5072559;28;20087;-62
2023/01/29 07:26:19;;;;;;;7.20;5.93;;;;;;;0.51;86.82;96733.81;5072507;28;20048;-66
2023/01/29 07:28:46;;;;;;;15.00;6.95;;;;;;;0.23;86.66;96731.09;5072221;28;20090;-64
2023/01/29 07:31:15;;;;;;;15.68;11.20;;;;;;;0.08;87.47;96727.59;5072370;28;20063;-64
2023/01/29 07:33:43;;;;;;;12.15;8.32;;;;;;;-0.05;88.63;96734.38;5072403;28;20490;-66
2023/01/29 07:36:13;;;;;;;11.05;8.10;;;;;;;-0.04;89.36;96732.63;5072411;28;20123;-65
2023/01/29 07:38:40;;;;;;;9.52;7.13;;;;;;;-0.08;89.00;96738.63;5072908;28;20044;-64
2023/01/29 07:41:08;;;;;;;11.05;7.43;;;;;;;-0.11;89.29;96736.03;5076052;28;20044;-66
2023/01/29 07:43:35;;;;;;;9.30;7.15;;;;;;;-0.09;89.48;96740.31;5076006;28;20044;-64
2023/01/29 07:46:03;;;;;;;11.25;7.20;;;;;;;-0.02;89.75;96743.81;5075835;28;20041;-63
2023/01/29 07:48:31;;;;;;;8.90;6.93;;;;;;;-0.09;89.24;96744.63;5075887;28;20071;-64
2023/01/29 07:50:58;;;;;;;11.55;7.75;;;;;;;-0.19;89.02;96752.25;5075835;28;20076;-65
2023/01/29 07:53:28;;;;;;;10.75;7.82;;;;;;;-0.22;88.87;96753.94;5075639;28;20052;-63
2023/01/29 07:55:59;;;;;;;11.15;8.23;;;;;;;-0.22;89.15;96748.78;5075698;28;20091;-65
2023/01/29 07:58:27;;;;;;;10.63;7.63;;;;;;;-0.23;89.41;96758.22;5075723;28;20052;-66
2023/01/29 08:00:54;;;;;;;10.27;7.20;;;;;;;-0.18;89.77;96753.13;5075678;28;20410;-66
2023/01/29 08:03:21;;;;;;;11.55;7.50;;;;;;;-0.26;88.63;96756.50;5075584;28;20088;-64
2023/01/29 08:05:48;;;;;;;9.77;7.32;;;;;;;-0.26;88.62;96758.19;5075578;28;20094;-66
2023/01/29 08:08:17;;;;;;;11.60;8.02;;;;;;;-0.29;88.89;96759.03;5075507;28;20123;-65
2023/01/29 08:10:47;;;;;;;12.00;8.23;;;;;;;-0.34;89.33;96755.56;5075377;28;20055;-66
2023/01/29 08:13:15;;;;;;;10.13;7.10;;;;;;;-0.37;89.71;96757.25;5075361;28;20055;-63
2023/01/29 08:15:44;;;;;;;12.05;8.68;;;;;;;-0.37;90.15;96763.25;5075361;28;20055;-62
2023/01/29 08:18:12;;;;;;;14.43;8.77;;;;;;;-0.30;90.19;96761.59;5075420;28;20127;-64
2023/01/29 08:20:39;;;;;;;13.25;8.50;;;;;;;-0.20;90.30;96765.97;5075496;28;20430;-65
2023/01/29 08:23:10;;;;;;;15.55;9.20;;;;;;;-0.15;89.71;96769.44;5075264;28;20106;-65
2023/01/29 08:25:37;;;;;;;12.77;8.75;;;;;;;-0.04;89.98;96772.09;5075306;28;20079;-61
2023/01/29 08:28:05;;;;;;;16.10;8.38;;;;;;;0.01;89.62;96776.41;5074930;28;20045;-65
2023/01/29 08:30:35;;;;;;;15.25;9.13;;;;;;;0.07;88.63;96779.91;5075113;28;20052;-64
2023/01/29 08:33:04;;;;;;;13.82;8.77;;;;;;;0.08;88.40;96775.59;5074984;28;20143;-66
2023/01/29 08:35:35;;;;;;;12.45;8.88;;;;;;;0.07;87.96;96774.75;5075082;28;20052;-66
2023/01/29 08:38:03;;;;;;;;;;;;;;;0.12;88.76;96785.94;5075426;28;20577;-65
2023/01/29 08:40:33;;;;;;;15.82;10.50;;;;;;;0.11;89.82;96785.91;5074875;28;19920;-65
2023/01/29 08:43:02;;;;;;;19.05;11.40;;;;;;;0.17;90.25;96782.53;5074896;28;20094;-66
2023/01/29 08:45:39;;;;;;;20.48;12.68;;;;;;;0.16;90.34;96783.38;5074838;28;20471;-64
2023/01/29 08:48:08;;;;;;;19.85;13.43;;;;;;;0.23;90.56;96782.56;5074805;28;20047;-64
2023/01/29 08:50:37;;;;;;;19.73;13.07;;;;;;;0.39;90.24;96792.97;5074338;28;20049;-63
2023/01/29 08:53:07;;;;;;;24.92;13.18;;;;;;;0.45;90.04;96793.03;5074510;28;20049;-63
2023/01/29 08:55:35;;;;;;;;;;;;;;;0.51;89.40;96787.88;5074996;28;20383;-65
2023/01/29 08:58:05;;;;;;;25.80;14.02;;;;;;;0.54;89.34;96787.91;5074584;28;20019;-64
2023/01/29 09:00:35;;;;;;;24.30;14.55;;;;;;;0.59;89.55;96785.38;5074482;28;20056;-65
2023/01/29 09:03:02;;;;;;;19.88;12.60;;;;;;;0.56;88.60;96787.91;5074526;28;20052;-64
2023/01/29 09:05:31;;;;;;;19.80;12.57;;;;;;;0.57;88.82;96782.78;5074626;28;20064;-64
2023/01/29 09:07:58;;;;;;;18.88;12.40;;;;;;;0.60;88.63;96790.53;5074515;28;20040;-65
2023/01/29 09:10:27;;;;;;;18.92;12.90;;;;;;;0.62;88.84;96786.25;5074241;28;20543;-65
2023/01/29 09:12:55;;;;;;;20.00;13.07;;;;;;;0.71;88.85;96787.16;5074143;28;20101;-64
2023/01/29 09:15:23;;;;;;;21.27;13.40;;;;;;;0.75;88.28;96794.03;5074170;28;20063;-64
2023/01/29 09:17:52;;;;;;;22.35;14.27;;;;;;;0.77;88.26;96788.88;5074145;28;20044;-64
2023/01/29 09:20:20;;;;;;;21.75;13.82;;;;;;;0.70;88.23;96794.03;5074182;28;20044;-65
2023/01/29 09:22:55;;;;;;;25.95;15.05;;;;;;;0.71;87.76;96792.28;5074189;28;20549;-64
2023/01/29 09:25:23;;;;;;;25.35;14.95;;;;;;;0.74;87.71;96788.03;5073990;28;20509;-63
2023/01/29 09:27:51;;;;;;;26.13;14.50;;;;;;;0.70;87.69;96790.59;5073978;28;20056;-64
2023/01/29 09:30:19;;;;;;;21.98;14.23;;;;;;;0.70;87.80;96788.88;5073611;28;20128;-63
2023/01/29 09:32:46;;;;;;;25.02;15.18;;;;;;;0.59;87.85;96786.25;5073799;28;20053;-64
2023/01/29 09:35:17;;;;;;;21.45;13.60;;;;;;;0.60;88.08;96787.94;5073894;28;20052;-63
2023/01/29 09:37:48;;;;;;;24.70;14.50;;;;;;;0.65;88.41;96789.69;5073841;28;20102;-64
2023/01/29 09:40:25;;;;;;;29.75;16.85;;;;;;;0.60;88.82;96781.97;5073748;28;20052;-65
2023/01/29 09:42:59;;;;;;;25.15;15.88;;;;;;;0.70;88.90;96778.56;5073718;28;20083;-65
2023/01/29 09:45:28;;;;;;;25.90;14.77;;;;;;;0.75;88.18;96776.88;5073555;28;20052;-65
2023/01/29 09:47:59;;;;;;;26.67;16.33;;;;;;;0.78;88.24;96772.59;5073602;28;20041;-65
2023/01/29 09:50:30;;;;;;;;;;;;;;;0.80;88.24;96776.91;5073956;28;20098;-63
2023/01/29 09:53:02;;;;;;;28.35;17.17;;;;;;;0.87;88.18;96767.47;5073477;28;19924;-65
2023/01/29 09:55:38;;;;;;;30.08;16.55;;;;;;;0.94;88.12;96760.63;5073609;28;20040;-65
2023/01/29 09:58:14;;;;;;;28.48;16.45;;;;;;;1.02;87.99;96763.25;5073399;28;20497;-64
2023/01/29 10:00:50;;;;;;;26.10;16.23;;;;;;;1.07;87.72;96752.09;5073365;28;20048;-65
2023/01/29 10:03:36;;;;;;;28.13;17.08;;;;;;;1.19;87.69;96760.72;5072915;28;20046;-63
2023/01/29 10:06:21;;;;;;;25.65;15.30;;;;;;;1.24;86.96;96759.03;5073302;28;20120;-64
2023/01/29 10:09:11;;;;;;;27.95;15.30;;;;;;;1.25;86.62;96756.44;5073440;28;20044;-63
2023/01/29 10:11:46;;;;;;;23.20;14.02;;;;;;;1.26;86.65;96752.13;5073216;28;20048;-66
2023/01/29 10:14:20;;;;;;;26.42;14.35;;;;;;;1.33;86.22;96753.88;5072957;28;20409;-65
2023/01/29 10:17:01;;;;;;;24.42;15.32;;;;;;;1.42;85.99;96747.03;5073279;28;20118;-64
2023/01/29 10:19:57;;;;;;;23.20;14.57;;;;;;;1.55;85.54;96746.19;5073180;28;20518;-63
2023/01/29 10:22:46;;;;;;;22.80;13.02;;;;;;;1.59;84.52;96741.88;5073009;28;20548;-64
2023/01/29 10:25:16;;;;;;;29.45;15.32;;;;;;;1.47;84.53;96738.44;5073091;28;20071;-64
2023/01/29 10:27:50;;;;;;;27.77;16.63;;;;;;;1.42;85.24;96740.16;5072945;28;20033;-64
2023/01/29 10:30:32;;;;;;;27.30;17.02;;;;;;;1.46;85.35;96735.84;5072920;28;20055;-65
2023/01/29 10:33:03;;;;;;;24.58;14.90;;;;;;;1.48;85.03;96740.13;5072994;28;20045;-66
2023/01/29 10:35:35;;;;;;;22.50;13.70;;;;;;;1.43;85.34;96725.53;5073062;28;20414;-63
2023/01/29 10:38:21;;;;;;;25.15;14.15;;;;;;;1.39;85.94;96730.69;5073051;28;20044;-63
2023/01/29 10:40:59;;;;;;;25.02;14.40;;;;;;;1.42;85.87;96723.81;5073016;28;20052;-64
2023/01/29 10:43:37;;;;;;;25.55;14.77;;;;;;;1.29;86.21;96718.63;5072963;28;20048;-66
2023/01/29 10:46:18;;;;;;;24.27;14.18;;;;;;;1.32;85.80;96710.06;5072939;28;20072;-65
2023/01/29 10:48:55;;;;;;;24.95;14.43;;;;;;;1.24;86.29;96717.78;5072953;28;20067;-63
2023/01/29 10:51:46;;;;;;;24.90;15.70;;;;;;;1.24;87.00;96725.50;5072998;28;20123;-66
2023/01/29 10:54:28;;;;;;;26.70;15.77;;;;;;;1.24;86.85;96713.47;5072772;28;20056;-65
2023/01/29 10:57:07;;;;;;;23.17;14.40;;;;;;;1.28;87.06;96708.31;5072839;28;20135;-66
2023/01/29 10:59:52;;;;;;;23.53;14.67;;;;;;;1.31;86.90;96706.63;5072797;28;20049;-65
2023/01/29 11:02:21;;;;;;;22.38;14.65;;;;;;;1.43;86.11;96704.91;5072719;28;20483;-63
2023/01/29 11:04:49;;;;;;;24.27;14.75;;;;;;;1.33;85.92;96702.34;5072719;28;20051;-63
2023/01/29 11:07:19;;;;;;;24.67;14.70;;;;;;;1.25;86.45;96704.88;5072664;28;20045;-63
2023/01/29 11:09:55;;;;;;;21.75;14.18;;;;;;;1.36;86.80;96691.16;5072675;28;20099;-63
2023/01/29 11:12:29;;;;;;;24.25;13.65;;;;;;;1.45;86.46;96692.88;5072718;28;20049;-65
2023/01/29 11:15:03;;;;;;;25.67;15.80;;;;;;;1.48;86.95;96693.72;5076595;28;20040;-66
2023/01/29 11:17:31;;;;;;;25.13;15.57;;;;;;;1.55;86.18;96697.19;5076471;28;20088;-64
2023/01/29 11:19:59;;;;;;;24.60;13.43;;;;;;;1.58;86.00;96694.59;5076496;28;20049;-66
2023/01/29 11:22:28;;;;;;;25.65;14.57;;;;;;;1.60;86.00;96698.03;5076524;28;20048;-63
2023/01/29 11:25:17;;;;;;;20.92;13.18;;;;;;;1.66;85.98;96694.63;5076336;28;20045;-64
2023/01/29 11:27:47;;;;;;;26.95;15.70;;;;;;;1.77;85.44;96689.44;5076291;28;20041;-63
2023/01/29 11:30:26;;;;;;;29.55;16.55;;;;;;;1.82;85.90;96690.31;5076070;28;20127;-63
2023/01/29 11:33:05;;;;;;;27.63;17.20;;;;;;;1.84;86.21;96680.81;5075994;28;20056;-66
2023/01/29 11:35:33;;;;;;;30.25;18.10;;;;;;;1.79;85.84;96679.97;5076019;28;20051;-64
2023/01/29 11:38:09;;;;;;;28.33;16.88;;;;;;;1.71;86.39;96685.13;5076210;28;20051;-63
2023/01/29 11:40:40;;;;;;;23.90;16.48;;;;;;;1.69;86.89;96686.00;5076023;28;20087;-63
2023/01/29 11:43:31;;;;;;;25.60;16.02;;;;;;;1.55;87.20;96678.25;5076066;28;20395;-62
2023/01/29 11:46:02;;;;;;;25.80;14.95;;;;;;;1.44;86.18;96679.13;5072989;28;20048;-64
2023/01/29 11:48:34;;;;;;;;;;;;;;;1.48;87.30;96675.69;5076489;28;20534;-63
2023/01/29 11:51:02;;;;;;;25.70;15.82;;;;;;;1.43;87.65;96674.81;5075933;28;19924;-64
2023/01/29 11:53:38;;;;;;;28.25;16.95;;;;;;;1.42;88.72;96667.09;5075861;28;20076;-63
2023/01/29 11:56:19;;;;;;;27.65;16.23;;;;;;;1.50;88.61;96671.38;5075687;28;20414;-65
2023/01/29 11:58:49;;;;;;;26.83;16.92;;;;;;;1.49;88.05;96666.22;5075724;28;20044;-66
2023/01/29 12:01:24;;;;;;;28.85;17.20;;;;;;;1.45;88.05;96664.53;5075678;28;20496;-63
2023/01/29 12:03:55;;;;;;;27.48;17.48;;;;;;;1.54;88.26;96664.53;5075585;28;20051;-62
2023/01/29 12:06:23;;;;;;;;;;;;;;;1.62;88.45;96661.91;5075978;28;20059;-65
2023/01/29 12:08:57;;;;;;;32.00;16.90;;;;;;;1.54;88.00;96661.06;5075527;28;19970;-64
2023/01/29 12:11:30;;;;;;;27.63;16.77;;;;;;;1.64;87.95;96667.94;5075526;28;20114;-65
2023/01/29 12:13:59;;;;;;;30.27;16.83;;;;;;;1.70;87.33;96656.75;5075319;28;20053;-64
2023/01/29 12:16:32;;;;;;;29.63;18.50;;;;;;;1.70;87.65;96662.78;5075361;28;20044;-63
2023/01/29 12:19:12;;;;;;;28.60;17.13;;;;;;;1.68;87.17;96668.81;5075337;28;20048;-63
2023/01/29 12:21:52;;;;;;;25.75;16.15;;;;;;;1.65;87.11;96664.50;5075188;28;20560;-64
2023/01/29 12:24:36;;;;;;;29.02;17.83;;;;;;;1.68;87.49;96661.09;5074654;28;20045;-65
2023/01/29 12:27:16;;;;;;;28.67;17.02;;;;;;;1.65;86.90;96661.94;5075279;28;20072;-66